Time;durP1;ratioP1;P1;durP2;ratioP2;P2;SDS_P1;SDS_P2;PMS_P1;PMS_P2;Temp;Humidity;BMP_temperature;BMP_pressure;BME280_temperature;BME280_humidity;BME280_pressure;Samples;Min_cycle;Max_cycle;Signal;HPM_P1;HPM_P2
2023/07/11 00:01:14;;;;;;;2.03;0.80;;;;;;;;;;5150076;27;20043;-65
2023/07/11 00:03:42;;;;;;;2.22;0.85;;;;;;;;;;5145010;27;20050;-65
2023/07/11 00:06:13;;;;;;;4.15;0.93;;;;;;;;;;5149644;27;20063;-66
2023/07/11 00:08:40;;;;;;;1.75;0.82;;;;;;;;;;5146314;27;20540;-65
2023/07/11 00:11:09;;;;;;;2.60;0.88;;;;;;;;;;5146483;27;20046;-65
2023/07/11 00:13:36;;;;;;;2.15;0.43;;;;;;;;;;5144242;27;20137;-65
2023/07/11 00:16:05;;;;;;;1.92;0.68;;;;;;;;;;5121294;27;20081;-65
2023/07/11 00:18:32;;;;;;;2.00;0.93;;;;;;;;;;5141309;27;20050;-65
2023/07/11 00:20:59;;;;;;;1.35;0.70;;;;;;;;;;5147285;27;20149;-65
2023/07/11 00:23:28;;;;;;;1.95;0.70;;;;;;;;;;5122307;27;20047;-65
2023/07/11 00:25:55;;;;;;;2.15;0.70;;;;;;;;;;5128286;27;20054;-65
2023/07/11 00:28:23;;;;;;;1.20;0.60;;;;;;;;;;5119705;27;20047;-65
2023/07/11 00:30:50;;;;;;;2.55;0.80;;;;;;;;;;5142332;27;20042;-65
2023/07/11 00:33:18;;;;;;;4.32;0.73;;;;;;;;;;5147388;27;20039;-65
2023/07/11 00:35:45;;;;;;;0.93;0.60;;;;;;;;;;5141291;27;20062;-65
2023/07/11 00:38:13;;;;;;;2.28;0.70;;;;;;;;;;5146455;27;20054;-65
2023/07/11 00:40:43;;;;;;;2.00;1.00;;;;;;;;;;5143767;27;20043;-65
2023/07/11 00:43:11;;;;;;;1.73;0.65;;;;;;;;;;5141454;27;20819;-65
2023/07/11 00:46:02;;;;;;;1.77;0.70;;;;;;;;;;5142172;27;20118;-65
2023/07/11 00:48:30;;;;;;;2.47;0.80;;;;;;;;;;5141084;27;20077;-64
2023/07/11 00:50:58;;;;;;;5.28;0.85;;;;;;;;;;5130313;27;20095;-65
2023/07/11 00:53:26;;;;;;;2.28;0.60;;;;;;;;;;5141263;27;20051;-65
2023/07/11 00:55:56;;;;;;;1.38;0.60;;;;;;;;;;5133462;27;20062;-65
2023/07/11 00:58:25;;;;;;;2.17;0.88;;;;;;;;;;5141121;27;20051;-65
2023/07/11 01:00:53;;;;;;;2.33;0.80;;;;;;;;;;5124065;27;20061;-65
2023/07/11 01:03:23;;;;;;;1.45;0.88;;;;;;;;;;5137579;27;20520;-65
2023/07/11 01:05:50;;;;;;;0.90;0.70;;;;;;;;;;5121427;27;20047;-65
2023/07/11 01:08:17;;;;;;;2.22;0.70;;;;;;;;;;5135431;27;20073;-65
2023/07/11 01:10:45;;;;;;;2.10;0.68;;;;;;;;;;5135103;27;20058;-65
2023/07/11 01:13:13;;;;;;;4.53;0.80;;;;;;;;;;5143622;27;20047;-66
2023/07/11 01:15:41;;;;;;;4.47;0.85;;;;;;;;;;5138295;27;20051;-65
2023/07/11 01:18:08;;;;;;;1.27;0.52;;;;;;;;;;5145446;27;20051;-65
2023/07/11 01:20:35;;;;;;;2.65;0.80;;;;;;;;;;5137078;27;20055;-65
2023/07/11 01:23:04;;;;;;;2.40;0.90;;;;;;;;;;5125733;27;20058;-65
2023/07/11 01:25:31;;;;;;;2.50;0.90;;;;;;;;;;5137360;27;20040;-65
2023/07/11 01:27:58;;;;;;;1.70;0.70;;;;;;;;;;5144540;27;20062;-65
2023/07/11 01:30:26;;;;;;;2.55;0.80;;;;;;;;;;5143096;27;20054;-65
2023/07/11 01:32:53;;;;;;;1.40;0.80;;;;;;;;;;5136356;27;20042;-65
2023/07/11 01:35:20;;;;;;;3.00;0.93;;;;;;;;;;5134284;27;20096;-65
2023/07/11 01:37:47;;;;;;;2.33;1.00;;;;;;;;;;5134561;27;20042;-65
2023/07/11 01:40:16;;;;;;;1.95;0.50;;;;;;;;;;5139511;27;20043;-65
2023/07/11 01:42:44;;;;;;;5.15;1.10;;;;;;;;;;5138120;27;20046;-65
2023/07/11 01:45:11;;;;;;;1.65;0.93;;;;;;;;;;5139911;27;20047;-65
2023/07/11 01:47:39;;;;;;;3.08;0.80;;;;;;;;;;5148599;27;20405;-65
2023/07/11 01:50:06;;;;;;;2.70;0.93;;;;;;;;;;5148103;27;20130;-65
2023/07/11 01:52:34;;;;;;;2.03;0.90;;;;;;;;;;5151050;27;20062;-65
2023/07/11 01:55:01;;;;;;;4.35;1.00;;;;;;;;;;5145917;27;20489;-64
2023/07/11 01:57:30;;;;;;;2.95;1.15;;;;;;;;;;5149467;27;20605;-65
2023/07/11 01:59:57;;;;;;;4.68;1.08;;;;;;;;;;5144036;27;20409;-65
2023/07/11 02:02:24;;;;;;;2.75;1.00;;;;;;;;;;5152747;27;20039;-65
2023/07/11 02:04:51;;;;;;;2.40;0.98;;;;;;;;;;5151374;27;20074;-65
2023/07/11 02:07:18;;;;;;;4.53;1.20;;;;;;;;;;5144262;27;20057;-65
2023/07/11 02:09:46;;;;;;;2.65;1.17;;;;;;;;;;5146397;27;20393;-65
2023/07/11 02:12:14;;;;;;;2.45;0.90;;;;;;;;;;5128782;27;20046;-65
2023/07/11 02:14:43;;;;;;;6.10;0.93;;;;;;;;;;5148466;27;20449;-65
2023/07/11 02:17:14;;;;;;;2.05;1.10;;;;;;;;;;5143566;27;20053;-65
2023/07/11 02:19:44;;;;;;;2.15;0.85;;;;;;;;;;5150121;27;20050;-66
2023/07/11 02:22:12;;;;;;;2.75;0.95;;;;;;;;;;5141650;27;20050;-65
2023/07/11 02:24:40;;;;;;;7.60;1.10;;;;;;;;;;5138294;27;20143;-65
2023/07/11 02:27:08;;;;;;;6.95;1.40;;;;;;;;;;5146736;27;20047;-65
2023/07/11 02:29:35;;;;;;;3.08;1.40;;;;;;;;;;5128548;27;20188;-66
2023/07/11 02:32:04;;;;;;;2.53;1.67;;;;;;;;;;5149190;27;20039;-65
2023/07/11 02:34:31;;;;;;;1.88;1.42;;;;;;;;;;5152080;27;20057;-64
2023/07/11 02:36:58;;;;;;;2.42;1.48;;;;;;;;;;5148587;27;20061;-65
2023/07/11 02:39:25;;;;;;;3.22;1.50;;;;;;;;;;5148269;27;20155;-65
2023/07/11 02:41:53;;;;;;;5.45;1.80;;;;;;;;;;5145178;27;20130;-65
2023/07/11 02:44:20;;;;;;;2.72;1.58;;;;;;;;;;5144552;27;20129;-65
2023/07/11 02:46:47;;;;;;;4.60;1.80;;;;;;;;;;5141367;27;20408;-65
2023/07/11 02:49:16;;;;;;;3.75;1.63;;;;;;;;;;5142806;27;20129;-65
2023/07/11 02:51:43;;;;;;;2.83;1.55;;;;;;;;;;5139249;27;20043;-65
2023/07/11 02:54:10;;;;;;;3.40;1.60;;;;;;;;;;5151880;27;20066;-65
2023/07/11 02:56:38;;;;;;;2.25;1.55;;;;;;;;;;5142775;27;20058;-65
2023/07/11 02:59:05;;;;;;;2.25;1.42;;;;;;;;;;5127503;27;20519;-65
2023/07/11 03:01:32;;;;;;;1.80;1.20;;;;;;;;;;5141253;27;20465;-65
2023/07/11 03:04:00;;;;;;;3.08;1.55;;;;;;;;;;5131036;27;20047;-65
2023/07/11 03:06:28;;;;;;;4.97;1.38;;;;;;;;;;5145837;27;20054;-65
2023/07/11 03:08:56;;;;;;;3.20;1.30;;;;;;;;;;5144660;27;20508;-65
2023/07/11 03:11:23;;;;;;;4.00;1.58;;;;;;;;;;5148264;27;20039;-65
2023/07/11 03:13:50;;;;;;;4.15;1.40;;;;;;;;;;5148620;27;20039;-65
2023/07/11 03:16:18;;;;;;;4.65;1.55;;;;;;;;;;5143627;27;20058;-65
2023/07/11 03:18:45;;;;;;;3.47;1.35;;;;;;;;;;5137382;27;20057;-65
2023/07/11 03:21:12;;;;;;;1.90;1.20;;;;;;;;;;5144118;27;20042;-65
2023/07/11 03:23:41;;;;;;;3.28;1.35;;;;;;;;;;5145455;27;20431;-65
2023/07/11 03:26:08;;;;;;;3.33;1.20;;;;;;;;;;5148850;27;20051;-65
2023/07/11 03:28:35;;;;;;;5.43;1.30;;;;;;;;;;5126169;27;20505;-65
2023/07/11 03:31:02;;;;;;;3.45;1.30;;;;;;;;;;5145945;27;20115;-65
2023/07/11 03:33:30;;;;;;;3.95;1.30;;;;;;;;;;5149549;27;20062;-65
2023/07/11 03:35:57;;;;;;;2.13;1.20;;;;;;;;;;5140037;27;20391;-66
2023/07/11 03:38:24;;;;;;;5.90;1.35;;;;;;;;;;5145784;27;20054;-66
2023/07/11 03:40:54;;;;;;;5.43;1.58;;;;;;;;;;5150311;27;20508;-65
2023/07/11 03:43:21;;;;;;;4.30;1.42;;;;;;;;;;5148451;27;20061;-66
2023/07/11 03:45:48;;;;;;;4.53;1.67;;;;;;;;;;5150909;27;20063;-65
2023/07/11 03:48:16;;;;;;;4.45;1.70;;;;;;;;;;5143079;27;20074;-66
2023/07/11 03:50:44;;;;;;;2.75;1.50;;;;;;;;;;5140519;27;20047;-64
2023/07/11 03:53:11;;;;;;;5.95;1.80;;;;;;;;;;5137192;27;20038;-65
2023/07/11 03:55:38;;;;;;;1.92;1.40;;;;;;;;;;5140328;27;20369;-65
2023/07/11 03:58:07;;;;;;;2.08;1.23;;;;;;;;;;5146455;27;20051;-65
2023/07/11 04:00:34;;;;;;;2.70;1.40;;;;;;;;;;5149651;27;20051;-65
2023/07/11 04:03:01;;;;;;;2.88;1.33;;;;;;;;;;5138781;27;20043;-66
2023/07/11 04:05:29;;;;;;;3.42;1.52;;;;;;;;;;5149809;27;20050;-65
2023/07/11 04:07:56;;;;;;;1.55;1.23;;;;;;;;;;5144669;27;20537;-65
2023/07/11 04:10:23;;;;;;;2.88;1.50;;;;;;;;;;5147559;27;20047;-65
2023/07/11 04:12:51;;;;;;;4.68;1.30;;;;;;;;;;5140701;27;20039;-65
2023/07/11 04:15:19;;;;;;;4.90;1.50;;;;;;;;;;5140205;27;20051;-65
2023/07/11 04:17:47;;;;;;;6.15;2.00;;;;;;;;;;5147186;27;20126;-65
2023/07/11 04:20:14;;;;;;;5.72;1.30;;;;;;;;;;5149648;27;20042;-66
2023/07/11 04:22:41;;;;;;;3.95;1.30;;;;;;;;;;5141594;27;20133;-65
2023/07/11 04:25:08;;;;;;;3.78;1.60;;;;;;;;;;5145314;27;20042;-65
2023/07/11 04:27:36;;;;;;;3.58;1.27;;;;;;;;;;5142073;27;20054;-65
2023/07/11 04:30:03;;;;;;;3.53;1.30;;;;;;;;;;5146515;27;20070;-65
2023/07/11 04:32:32;;;;;;;3.72;1.42;;;;;;;;;;5138000;27;20046;-64
2023/07/11 04:34:59;;;;;;;2.55;1.50;;;;;;;;;;5141650;27;20588;-65
2023/07/11 04:37:26;;;;;;;3.90;1.50;;;;;;;;;;5126139;27;20147;-64
2023/07/11 04:39:54;;;;;;;3.83;1.35;;;;;;;;;;5146305;27;20039;-65
2023/07/11 04:42:21;;;;;;;4.90;1.73;;;;;;;;;;5146703;27;20038;-64
2023/07/11 04:44:48;;;;;;;4.85;1.90;;;;;;;;;;5148487;27;20696;-64
2023/07/11 04:47:16;;;;;;;6.18;1.92;;;;;;;;;;5146512;27;20145;-65
2023/07/11 04:49:44;;;;;;;3.58;1.65;;;;;;;;;;5144416;27;20453;-65
2023/07/11 04:52:12;;;;;;;5.25;1.70;;;;;;;;;;5143300;27;20393;-65
2023/07/11 04:54:39;;;;;;;4.55;2.10;;;;;;;;;;5144507;27;20152;-65
2023/07/11 04:57:06;;;;;;;4.53;1.77;;;;;;;;;;5138225;27;20464;-65
2023/07/11 04:59:34;;;;;;;6.60;2.13;;;;;;;;;;5141108;27;20055;-64
2023/07/11 05:02:01;;;;;;;5.97;2.20;;;;;;;;;;5143962;27;20038;-65
2023/07/11 05:04:28;;;;;;;3.88;1.88;;;;;;;;;;5145115;27;20051;-66
2023/07/11 05:07:00;;;;;;;5.72;2.10;;;;;;;;;;5147676;27;20062;-64
2023/07/11 05:09:28;;;;;;;5.47;2.33;;;;;;;;;;5146330;27;20067;-64
2023/07/11 05:11:55;;;;;;;5.50;2.50;;;;;;;;;;5137628;27;20157;-65
2023/07/11 05:14:22;;;;;;;3.22;1.70;;;;;;;;;;5137834;27;20043;-65
2023/07/11 05:16:50;;;;;;;3.90;2.08;;;;;;;;;;5142169;27;20047;-65
2023/07/11 05:19:17;;;;;;;4.05;2.20;;;;;;;;;;5139067;27;20314;-64
2023/07/11 05:21:44;;;;;;;4.13;2.40;;;;;;;;;;5125766;27;20043;-65
2023/07/11 05:24:13;;;;;;;4.25;2.55;;;;;;;;;;5140726;27;20047;-69
2023/07/11 05:26:40;;;;;;;9.93;2.72;;;;;;;;;;5137170;27;20043;-70
2023/07/11 05:29:07;;;;;;;5.65;2.20;;;;;;;;;;5138442;27;20046;-70
2023/07/11 05:31:35;;;;;;;5.43;2.33;;;;;;;;;;5139133;27;20043;-69
2023/07/11 05:34:02;;;;;;;8.77;2.75;;;;;;;;;;5141713;27;20043;-69
2023/07/11 05:36:33;;;;;;;7.95;2.40;;;;;;;;;;5134928;27;20047;-69
2023/07/11 05:39:01;;;;;;;6.80;2.70;;;;;;;;;;5131865;27;20047;-69
2023/07/11 05:41:30;;;;;;;5.88;2.85;;;;;;;;;;5140339;27;20047;-70
2023/07/11 05:43:57;;;;;;;7.28;2.30;;;;;;;;;;5136170;27;20525;-69
2023/07/11 05:46:26;;;;;;;4.28;2.17;;;;;;;;;;5132609;27;20039;-69
2023/07/11 05:48:54;;;;;;;4.68;2.70;;;;;;;;;;5143940;27;20050;-69
2023/07/11 05:51:21;;;;;;;11.43;3.10;;;;;;;;;;5143192;27;20046;-70
2023/07/11 05:53:49;;;;;;;5.68;2.70;;;;;;;;;;5143204;27;20039;-69
2023/07/11 05:56:17;;;;;;;4.53;2.50;;;;;;;;;;5137585;27;20051;-69
2023/07/11 05:58:46;;;;;;;6.35;2.45;;;;;;;;;;5141285;27;20051;-69
2023/07/11 06:01:13;;;;;;;5.43;2.72;;;;;;;;;;5128746;27;20455;-69
2023/07/11 06:03:45;;;;;;;7.78;2.40;;;;;;;;;;5136422;27;20058;-69
2023/07/11 06:06:13;;;;;;;5.50;2.42;;;;;;;;;;5137475;27;20051;-65
2023/07/11 06:08:40;;;;;;;5.30;2.67;;;;;;;;;;5138542;27;20043;-65
2023/07/11 06:11:07;;;;;;;5.13;2.80;;;;;;;;;;5141131;27;20061;-65
2023/07/11 06:13:36;;;;;;;5.63;2.60;;;;;;;;;;5144908;27;20047;-66
2023/07/11 06:16:06;;;;;;;5.70;2.65;;;;;;;;;;5141606;27;20061;-65
2023/07/11 06:18:35;;;;;;;7.25;2.60;;;;;;;;;;5144774;27;20050;-65
2023/07/11 06:21:02;;;;;;;3.60;2.58;;;;;;;;;;5138455;27;20039;-66
2023/07/11 06:23:29;;;;;;;7.35;2.78;;;;;;;;;;5137288;27;20425;-66
2023/07/11 06:25:57;;;;;;;6.22;2.80;;;;;;;;;;5142732;27;20050;-66
2023/07/11 06:28:24;;;;;;;6.38;2.80;;;;;;;;;;5137979;27;20497;-65
2023/07/11 06:30:51;;;;;;;6.28;2.55;;;;;;;;;;5138537;27;20058;-65
2023/07/11 06:33:20;;;;;;;4.60;2.55;;;;;;;;;;5135012;27;20058;-65
2023/07/11 06:35:49;;;;;;;6.00;2.75;;;;;;;;;;5148694;27;20053;-65
2023/07/11 06:38:16;;;;;;;3.85;2.50;;;;;;;;;;5145418;27;20085;-65
2023/07/11 06:40:48;;;;;;;6.30;2.47;;;;;;;;;;5143795;27;20508;-65
2023/07/11 06:43:15;;;;;;;5.75;2.80;;;;;;;;;;5145450;27;20099;-65
2023/07/11 06:45:42;;;;;;;7.38;3.03;;;;;;;;;;5150119;27;20039;-66
2023/07/11 06:48:09;;;;;;;6.82;2.70;;;;;;;;;;5129231;27;20501;-65
2023/07/11 06:50:38;;;;;;;13.20;3.45;;;;;;;;;;5147218;27;20482;-65
2023/07/11 06:53:05;;;;;;;7.30;3.17;;;;;;;;;;5140874;27;20091;-65
2023/07/11 06:55:33;;;;;;;6.95;2.90;;;;;;;;;;5145545;27;20047;-65
2023/07/11 06:58:00;;;;;;;7.70;3.25;;;;;;;;;;5147031;27;20043;-65
2023/07/11 07:00:27;;;;;;;4.95;3.45;;;;;;;;;;5138644;27;20066;-66
2023/07/11 07:02:54;;;;;;;9.07;3.50;;;;;;;;;;5146806;27;20516;-65
2023/07/11 07:05:22;;;;;;;7.85;3.55;;;;;;;;;;5137735;27;20047;-65
2023/07/11 07:07:50;;;;;;;7.55;3.65;;;;;;;;;;5146851;27;20058;-65
2023/07/11 07:10:17;;;;;;;7.30;3.63;;;;;;;;;;5134064;27;20406;-66
2023/07/11 07:12:45;;;;;;;8.35;3.65;;;;;;;;;;5142523;27;20056;-65
2023/07/11 07:15:12;;;;;;;7.28;3.05;;;;;;;;;;5141976;27;20107;-66
2023/07/11 07:17:40;;;;;;;7.97;3.80;;;;;;;;;;5142713;27;20042;-65
2023/07/11 07:20:09;;;;;;;5.88;3.42;;;;;;;;;;5140399;27;20474;-65
2023/07/11 07:22:36;;;;;;;10.32;3.90;;;;;;;;;;5146211;27;20050;-65
2023/07/11 07:25:05;;;;;;;10.35;3.58;;;;;;;;;;5140124;27;20069;-67
2023/07/11 07:27:32;;;;;;;4.50;3.00;;;;;;;;;;5142067;27;20067;-66
2023/07/11 07:29:59;;;;;;;3.92;3.03;;;;;;;;;;5147714;27;20619;-66
2023/07/11 07:32:27;;;;;;;5.80;3.42;;;;;;;;;;5149811;27;20122;-65
2023/07/11 07:34:54;;;;;;;8.27;3.28;;;;;;;;;;5149540;27;20046;-64
2023/07/11 07:37:21;;;;;;;6.85;3.53;;;;;;;;;;5130246;27;20396;-64
2023/07/11 07:39:48;;;;;;;6.03;3.28;;;;;;;;;;5136100;27;20248;-64
2023/07/11 07:42:17;;;;;;;6.82;3.03;;;;;;;;;;5141077;27;20043;-65
2023/07/11 07:44:44;;;;;;;5.22;3.35;;;;;;;;;;5135073;27;20497;-65
2023/07/11 07:47:11;;;;;;;7.82;3.22;;;;;;;;;;5143843;27;20047;-65
2023/07/11 07:49:39;;;;;;;5.45;2.80;;;;;;;;;;5149375;27;20043;-65
2023/07/11 07:52:06;;;;;;;7.47;3.53;;;;;;;;;;5138141;27;20474;-65
2023/07/11 07:54:34;;;;;;;5.22;3.00;;;;;;;;;;5145721;27;20054;-65
2023/07/11 07:57:01;;;;;;;4.68;2.88;;;;;;;;;;5142065;27;20113;-65
2023/07/11 07:59:30;;;;;;;5.18;2.70;;;;;;;;;;5145645;27;20050;-65
2023/07/11 08:01:58;;;;;;;8.27;2.85;;;;;;;;;;5138318;27;20046;-70
2023/07/11 08:04:25;;;;;;;6.47;2.95;;;;;;;;;;5140976;27;20493;-71
2023/07/11 08:06:52;;;;;;;6.38;2.60;;;;;;;;;;5144576;27;20816;-71
2023/07/11 08:09:19;;;;;;;6.57;2.50;;;;;;;;;;5144721;27;20522;-70
2023/07/11 08:11:47;;;;;;;5.88;2.67;;;;;;;;;;5144705;27;20088;-70
2023/07/11 08:14:14;;;;;;;6.90;2.30;;;;;;;;;;5145761;27;20070;-71
2023/07/11 08:16:43;;;;;;;6.55;2.13;;;;;;;;;;5140069;27;20566;-71
2023/07/11 08:19:10;;;;;;;5.60;2.38;;;;;;;;;;5136731;27;20118;-71
2023/07/11 08:21:38;;;;;;;3.80;2.00;;;;;;;;;;5142549;27;20508;-71
2023/07/11 08:24:06;;;;;;;4.70;2.25;;;;;;;;;;5139064;27;20042;-69
2023/07/11 08:26:34;;;;;;;4.90;2.42;;;;;;;;;;5141896;27;20051;-70
2023/07/11 08:29:01;;;;;;;4.95;2.05;;;;;;;;;;5142641;27;20089;-70
2023/07/11 08:31:28;;;;;;;5.60;2.10;;;;;;;;;;5146163;27;20050;-69
2023/07/11 08:33:57;;;;;;;4.88;1.88;;;;;;;;;;5140862;27;20939;-70
2023/07/11 08:36:24;;;;;;;5.00;2.00;;;;;;;;;;5147349;27;20519;-69
2023/07/11 08:38:51;;;;;;;4.20;2.00;;;;;;;;;;5141816;27;20096;-69
2023/07/11 08:41:25;;;;;;;6.30;2.50;;;;;;;;;;5144527;27;21205;-70
2023/07/11 08:43:54;;;;;;;4.18;1.83;;;;;;;;;;5144776;27;20455;-70
2023/07/11 08:46:22;;;;;;;3.63;1.83;;;;;;;;;;5145587;27;20046;-69
2023/07/11 08:48:52;;;;;;;3.28;2.17;;;;;;;;;;5138723;27;20050;-70
2023/07/11 08:51:24;;;;;;;4.65;2.00;;;;;;;;;;5145075;27;20042;-70
2023/07/11 08:53:57;;;;;;;3.28;1.90;;;;;;;;;;5146564;27;20043;-68
2023/07/11 08:56:29;;;;;;;4.40;2.03;;;;;;;;;;5123279;27;20501;-67
2023/07/11 08:58:59;;;;;;;2.35;1.50;;;;;;;;;;5139303;27;20440;-69
2023/07/11 09:01:32;;;;;;;5.55;1.65;;;;;;;;;;5147094;27;20477;-70
2023/07/11 09:04:01;;;;;;;2.60;1.50;;;;;;;;;;5135782;27;20498;-69
2023/07/11 09:06:36;;;;;;;9.13;1.77;;;;;;;;;;5145200;27;20069;-69
2023/07/11 09:09:04;;;;;;;4.40;1.65;;;;;;;;;;5144687;27;20099;-69
2023/07/11 09:11:35;;;;;;;4.53;1.73;;;;;;;;;;5144556;27;20051;-69
2023/07/11 09:14:11;;;;;;;5.22;1.63;;;;;;;;;;5139233;27;20047;-69
2023/07/11 09:16:44;;;;;;;3.15;1.60;;;;;;;;;;5142077;27;20043;-70
2023/07/11 09:19:11;;;;;;;;;;;;;;;;;;5140253;27;20069;-70
2023/07/11 09:21:43;;;;;;;7.93;1.90;;;;;;;;;;5138046;27;20365;-69
2023/07/11 09:24:16;;;;;;;3.13;1.92;;;;;;;;;;5145880;27;20063;-68
2023/07/11 09:26:48;;;;;;;2.58;1.40;;;;;;;;;;5143708;27;20042;-70
2023/07/11 09:29:16;;;;;;;6.55;2.10;;;;;;;;;;5135632;27;20125;-70
2023/07/11 09:31:46;;;;;;;3.83;1.50;;;;;;;;;;5127586;27;20047;-70
2023/07/11 09:34:17;;;;;;;3.85;1.58;;;;;;;;;;5142714;27;20043;-69
2023/07/11 09:36:47;;;;;;;6.63;1.88;;;;;;;;;;5137578;27;20086;-69
2023/07/11 09:39:17;;;;;;;5.65;1.75;;;;;;;;;;5138642;27;20049;-69
2023/07/11 09:41:49;;;;;;;10.05;2.00;;;;;;;;;;5145000;27;20046;-68
2023/07/11 09:44:17;;;;;;;3.85;1.75;;;;;;;;;;5135895;27;20050;-68
2023/07/11 09:46:44;;;;;;;4.60;1.73;;;;;;;;;;5138032;27;20043;-70
2023/07/11 09:49:16;;;;;;;7.60;2.13;;;;;;;;;;5139389;27;20062;-68
2023/07/11 09:51:48;;;;;;;5.97;2.10;;;;;;;;;;5130682;27;20043;-70
2023/07/11 09:54:19;;;;;;;6.35;2.40;;;;;;;;;;5132724;27;20039;-69
2023/07/11 09:56:48;;;;;;;4.88;2.50;;;;;;;;;;5140610;27;20053;-69
2023/07/11 09:59:15;;;;;;;5.13;2.80;;;;;;;;;;5141786;27;20074;-68
2023/07/11 10:01:43;;;;;;;5.78;2.67;;;;;;;;;;5141242;27;20054;-69
2023/07/11 10:04:14;;;;;;;5.85;1.92;;;;;;;;;;5145679;27;20057;-69
2023/07/11 10:06:44;;;;;;;5.97;2.10;;;;;;;;;;5142786;27;20069;-69
2023/07/11 10:09:17;;;;;;;6.53;2.05;;;;;;;;;;5139804;27;20171;-70
2023/07/11 10:11:49;;;;;;;3.95;2.08;;;;;;;;;;5142518;27;20047;-69
2023/07/11 10:14:18;;;;;;;6.40;2.17;;;;;;;;;;5144223;27;20385;-69
2023/07/11 10:16:46;;;;;;;4.68;2.08;;;;;;;;;;5125880;27;20051;-68
2023/07/11 10:19:15;;;;;;;4.03;2.28;;;;;;;;;;5149747;27;20047;-69
2023/07/11 10:21:45;;;;;;;4.55;1.85;;;;;;;;;;5128865;27;20605;-69
2023/07/11 10:24:17;;;;;;;5.50;2.25;;;;;;;;;;5149502;27;20051;-69
2023/07/11 10:26:44;;;;;;;5.43;1.98;;;;;;;;;;5147368;27;20160;-68
2023/07/11 10:29:13;;;;;;;6.35;2.00;;;;;;;;;;5151007;27;20046;-70
2023/07/11 10:31:45;;;;;;;7.82;1.80;;;;;;;;;;5145914;27;20268;-68
2023/07/11 10:34:15;;;;;;;4.30;1.63;;;;;;;;;;5147447;27;20035;-69
2023/07/11 10:36:46;;;;;;;5.20;1.50;;;;;;;;;;5144728;27;20047;-70
2023/07/11 10:39:15;;;;;;;4.18;1.33;;;;;;;;;;5151565;27;20126;-69
2023/07/11 10:41:47;;;;;;;4.90;2.00;;;;;;;;;;5148857;27;20047;-69
2023/07/11 10:44:17;;;;;;;4.45;1.45;;;;;;;;;;5151293;27;20051;-69
2023/07/11 10:46:46;;;;;;;4.65;1.67;;;;;;;;;;5143905;27;20504;-69
2023/07/11 10:49:15;;;;;;;3.72;1.25;;;;;;;;;;5146328;27;20043;-71
2023/07/11 10:51:46;;;;;;;4.28;1.80;;;;;;;;;;5142794;27;20051;-70
2023/07/11 10:54:20;;;;;;;2.45;1.30;;;;;;;;;;5148314;27;20043;-68
2023/07/11 10:56:51;;;;;;;6.18;1.30;;;;;;;;;;5143597;27;20038;-69
2023/07/11 10:59:21;;;;;;;2.60;1.20;;;;;;;;;;5148580;27;20051;-69
2023/07/11 11:01:54;;;;;;;3.63;1.40;;;;;;;;;;5145255;27;20080;-70
2023/07/11 11:04:31;;;;;;;4.97;1.30;;;;;;;;;;5127973;27;20058;-69
2023/07/11 11:07:00;;;;;;;5.57;1.90;;;;;;;;;;5145449;27;20705;-69
2023/07/11 11:09:35;;;;;;;7.97;1.40;;;;;;;;;;5144148;27;20083;-69
2023/07/11 11:12:07;;;;;;;4.95;1.23;;;;;;;;;;5141103;27;20089;-69
2023/07/11 11:14:41;;;;;;;3.00;1.50;;;;;;;;;;5139336;27;20047;-68
2023/07/11 11:17:15;;;;;;;4.30;1.25;;;;;;;;;;5142938;27;20055;-69
2023/07/11 11:19:50;;;;;;;3.00;1.23;;;;;;;;;;5122079;27;20114;-69
2023/07/11 11:22:20;;;;;;;4.32;1.70;;;;;;;;;;5148597;27;20063;-69
2023/07/11 11:24:52;;;;;;;3.75;1.50;;;;;;;;;;5121517;27;20096;-68
2023/07/11 11:27:33;;;;;;;9.37;1.30;;;;;;;;;;5145199;27;20493;-70
2023/07/11 11:30:05;;;;;;;3.03;1.42;;;;;;;;;;5146163;27;20054;-69
2023/07/11 11:32:37;;;;;;;4.27;1.37;;;;;;;;;;5148269;27;20035;-68
2023/07/11 11:35:11;;;;;;;8.87;1.67;;;;;;;;;;5141912;27;20047;-69
2023/07/11 11:37:54;;;;;;;5.10;1.70;;;;;;;;;;5140170;27;20375;-70
2023/07/11 11:40:23;;;;;;;3.83;1.60;;;;;;;;;;5146182;27;20331;-69
2023/07/11 11:42:53;;;;;;;4.25;1.80;;;;;;;;;;5137971;27;20063;-69
2023/07/11 11:45:22;;;;;;;4.68;1.95;;;;;;;;;;5141356;27;20035;-69
2023/07/11 11:47:50;;;;;;;3.08;1.50;;;;;;;;;;5146704;27;20119;-70
2023/07/11 11:50:19;;;;;;;4.93;1.67;;;;;;;;;;5144473;27;20393;-69
2023/07/11 11:52:46;;;;;;;4.38;1.42;;;;;;;;;;5139211;27;20042;-69
2023/07/11 11:55:24;;;;;;;3.97;1.58;;;;;;;;;;5148797;27;20038;-69
2023/07/11 11:57:53;;;;;;;3.28;1.40;;;;;;;;;;5146818;27;20050;-69
2023/07/11 12:00:39;;;;;;;3.65;1.40;;;;;;;;;;5141710;27;20045;-70
2023/07/11 12:03:07;;;;;;;1.90;1.30;;;;;;;;;;5121561;27;20119;-70
2023/07/11 12:05:34;;;;;;;3.05;1.65;;;;;;;;;;5147396;27;20042;-69
2023/07/11 12:08:18;;;;;;;2.90;1.23;;;;;;;;;;5119322;27;20146;-69
2023/07/11 12:11:01;;;;;;;1.83;0.98;;;;;;;;;;5147356;27;20386;-69
2023/07/11 12:13:32;;;;;;;3.15;1.20;;;;;;;;;;5145897;27;20046;-70
2023/07/11 12:16:03;;;;;;;1.08;0.85;;;;;;;;;;5140640;27;20046;-69
2023/07/11 12:18:42;;;;;;;0.85;0.73;;;;;;;;;;5147798;27;20053;-69
2023/07/11 12:21:28;;;;;;;1.55;1.00;;;;;;;;;;5123245;27;20495;-70
2023/07/11 12:24:12;;;;;;;1.17;0.80;;;;;;;;;;5146774;27;20039;-69
2023/07/11 12:26:39;;;;;;;1.75;0.80;;;;;;;;;;5148459;27;20042;-69
2023/07/11 12:29:21;;;;;;;1.15;0.80;;;;;;;;;;5141058;27;20054;-71
2023/07/11 12:32:10;;;;;;;1.70;0.80;;;;;;;;;;5142119;27;20557;-69
2023/07/11 12:34:37;;;;;;;0.82;0.70;;;;;;;;;;5142528;27;20050;-69
2023/07/11 12:37:05;;;;;;;2.25;1.00;;;;;;;;;;5125424;27;20073;-69
2023/07/11 12:39:42;;;;;;;1.65;0.95;;;;;;;;;;5139095;27;20472;-70
2023/07/11 12:42:17;;;;;;;1.70;0.82;;;;;;;;;;5146881;27;20465;-69
2023/07/11 12:44:45;;;;;;;2.15;1.08;;;;;;;;;;5139452;27;20039;-69
2023/07/11 12:47:17;;;;;;;3.33;1.00;;;;;;;;;;5144480;27;20061;-69
2023/07/11 12:49:45;;;;;;;1.60;1.05;;;;;;;;;;5142182;27;20054;-70
2023/07/11 12:52:13;;;;;;;1.00;0.90;;;;;;;;;;5136572;27;20489;-70
2023/07/11 12:54:40;;;;;;;1.08;0.90;;;;;;;;;;5136296;27;20051;-69
2023/07/11 12:57:13;;;;;;;1.95;0.93;;;;;;;;;;5146502;27;20743;-72
2023/07/11 12:59:40;;;;;;;;;;;;;;;;;;5141532;27;20052;-69
2023/07/11 13:02:09;;;;;;;1.33;0.95;;;;;;;;;;5135233;27;19923;-69
2023/07/11 13:04:38;;;;;;;1.38;1.00;;;;;;;;;;5143092;27;20424;-70
2023/07/11 13:07:11;;;;;;;2.92;1.30;;;;;;;;;;5146446;27;20466;-69
2023/07/11 13:09:49;;;;;;;1.48;0.90;;;;;;;;;;5146556;27;20055;-69
2023/07/11 13:12:18;;;;;;;2.72;1.20;;;;;;;;;;5138086;27;20087;-68
2023/07/11 13:14:47;;;;;;;1.98;1.00;;;;;;;;;;5147446;27;20047;-69
2023/07/11 13:17:15;;;;;;;3.55;1.25;;;;;;;;;;5128228;27;20085;-69
2023/07/11 13:19:44;;;;;;;5.88;1.20;;;;;;;;;;5143504;27;20047;-68
2023/07/11 13:22:14;;;;;;;1.23;1.08;;;;;;;;;;5128593;27;20061;-69
2023/07/11 13:24:41;;;;;;;2.83;0.90;;;;;;;;;;5148008;27;20038;-67
2023/07/11 13:27:17;;;;;;;4.32;1.30;;;;;;;;;;5143005;27;20216;-69
2023/07/11 13:29:44;;;;;;;3.42;1.02;;;;;;;;;;5143225;27;20485;-69
2023/07/11 13:32:15;;;;;;;2.15;0.90;;;;;;;;;;5147209;27;20047;-69
2023/07/11 13:34:48;;;;;;;2.42;1.10;;;;;;;;;;5134374;27;20421;-69
2023/07/11 13:37:22;;;;;;;2.10;0.88;;;;;;;;;;5148750;27;20476;-71
2023/07/11 13:39:49;;;;;;;2.17;1.00;;;;;;;;;;5135226;27;20062;-70
2023/07/11 13:42:17;;;;;;;1.65;0.90;;;;;;;;;;5143427;27;20046;-71
2023/07/11 13:44:47;;;;;;;2.70;1.00;;;;;;;;;;5144362;27;20103;-71
2023/07/11 13:47:16;;;;;;;1.67;1.02;;;;;;;;;;5140643;27;20046;-70
2023/07/11 13:49:46;;;;;;;3.00;1.10;;;;;;;;;;5147606;27;20489;-69
2023/07/11 13:52:19;;;;;;;1.75;1.00;;;;;;;;;;5144945;27;20043;-70
2023/07/11 13:54:51;;;;;;;1.13;0.80;;;;;;;;;;5124058;27;20127;-70
2023/07/11 13:57:19;;;;;;;2.63;1.35;;;;;;;;;;5140427;27;20050;-69
2023/07/11 13:59:47;;;;;;;1.70;1.10;;;;;;;;;;5136970;27;20133;-70
2023/07/11 14:02:15;;;;;;;2.17;1.10;;;;;;;;;;5138845;27;20059;-70
2023/07/11 14:04:42;;;;;;;1.83;1.00;;;;;;;;;;5144331;27;20082;-70
2023/07/11 14:07:12;;;;;;;2.13;0.95;;;;;;;;;;5135177;27;20443;-70
2023/07/11 14:09:39;;;;;;;2.75;1.20;;;;;;;;;;5145805;27;20046;-69
2023/07/11 14:12:07;;;;;;;1.60;1.13;;;;;;;;;;5136884;27;20047;-70
2023/07/11 14:14:35;;;;;;;2.75;1.35;;;;;;;;;;5144802;27;20043;-70
2023/07/11 14:17:03;;;;;;;2.90;1.10;;;;;;;;;;5145951;27;20448;-70
2023/07/11 14:19:32;;;;;;;2.90;1.30;;;;;;;;;;5140855;27;20047;-69
2023/07/11 14:22:01;;;;;;;2.45;1.10;;;;;;;;;;5144109;27;20058;-69
2023/07/11 14:24:29;;;;;;;2.80;1.10;;;;;;;;;;5140564;27;20078;-70
2023/07/11 14:26:57;;;;;;;2.45;1.17;;;;;;;;;;5136025;27;20073;-69
2023/07/11 14:29:25;;;;;;;2.10;0.93;;;;;;;;;;5148823;27;20561;-70
2023/07/11 14:31:53;;;;;;;3.70;1.30;;;;;;;;;;5140293;27;20115;-69
2023/07/11 14:34:21;;;;;;;6.82;1.10;;;;;;;;;;5139498;27;20043;-70
2023/07/11 14:36:48;;;;;;;2.08;1.02;;;;;;;;;;5147555;27;20450;-70
2023/07/11 14:39:16;;;;;;;1.63;1.02;;;;;;;;;;5135334;27;20043;-70
2023/07/11 14:41:45;;;;;;;2.88;1.00;;;;;;;;;;5142709;27;20065;-69
2023/07/11 14:44:21;;;;;;;3.70;1.23;;;;;;;;;;5140154;27;20596;-69
2023/07/11 14:46:48;;;;;;;4.05;1.10;;;;;;;;;;5143396;27;20043;-70
2023/07/11 14:49:15;;;;;;;3.75;1.05;;;;;;;;;;5144178;27;20043;-70
2023/07/11 14:51:42;;;;;;;1.58;0.85;;;;;;;;;;5144047;27;20050;-69
2023/07/11 14:54:13;;;;;;;2.67;1.00;;;;;;;;;;5143212;27;20078;-70